Time;durP1;ratioP1;P1;durP2;ratioP2;P2;SDS_P1;SDS_P2;PMS_P1;PMS_P2;Temp;Humidity;BMP_temperature;BMP_pressure;BME280_temperature;BME280_humidity;BME280_pressure;Samples;Min_cycle;Max_cycle;Signal;HPM_P1;HPM_P2
2022/04/30 00:02:09;;;;;;;2.95;2.38;;;16.00;34.30;;;13.70;36.25;102024.09;12242908;19;20014;-78
2022/04/30 00:06:11;;;;;;;4.28;2.33;;;15.90;34.40;;;13.67;36.11;102016.38;12242096;19;20014;-78
2022/04/30 00:10:13;;;;;;;2.85;2.22;;;15.90;34.40;;;13.80;36.23;102053.41;12238387;19;20422;-78
2022/04/30 00:14:14;;;;;;;3.28;2.20;;;15.80;34.30;;;13.68;36.23;102054.81;12237838;19;20022;-78
2022/04/30 00:18:16;;;;;;;2.92;1.92;;;15.80;34.30;;;13.38;36.43;102015.09;12240221;19;20086;-78
2022/04/30 00:22:17;;;;;;;2.53;1.63;;;15.70;34.30;;;13.40;36.33;102028.16;12239752;19;20131;-78
2022/04/30 00:26:19;;;;;;;2.53;1.70;;;15.60;34.30;;;13.28;36.46;102034.81;12240390;19;20026;-78
2022/04/30 00:30:21;;;;;;;2.60;1.85;;;15.40;34.20;;;13.09;36.52;102021.66;12239815;19;20007;-78
2022/04/30 00:34:23;;;;;;;1.92;1.58;;;15.40;34.40;;;12.65;36.66;101979.06;12236330;19;20006;-78
2022/04/30 00:38:24;;;;;;;2.45;1.95;;;15.10;34.30;;;12.76;36.81;102016.97;12237979;19;20436;-78
2022/04/30 00:42:26;;;;;;;4.18;1.50;;;15.10;34.40;;;12.51;36.85;101985.75;12238263;19;20026;-78
2022/04/30 00:46:28;;;;;;;3.25;1.77;;;15.00;34.40;;;12.43;36.98;101990.47;12239257;19;20090;-78
2022/04/30 00:50:36;;;;;;;5.07;1.63;;;15.00;34.50;;;12.60;37.10;102022.03;12232592;19;20010;-78
2022/04/30 00:54:40;;;;;;;1.48;1.23;;;14.80;34.70;;;12.61;37.28;102026.38;12235450;19;20479;-78
2022/04/30 00:58:47;;;;;;;1.52;1.42;;;14.80;34.80;;;12.37;37.08;101983.72;12237438;19;20031;-78
2022/04/30 01:02:49;;;;;;;2.25;1.63;;;14.60;34.90;;;12.44;37.33;102007.03;12237509;19;20043;-78
2022/04/30 01:07:15;;;;;;;1.92;1.80;;;14.70;35.00;;;12.40;37.32;102008.94;12236401;19;20039;-78
2022/04/30 01:11:16;;;;;;;2.97;1.33;;;14.70;35.10;;;12.37;37.37;102015.16;12238437;19;20115;-78
2022/04/30 01:15:20;;;;;;;2.65;1.40;;;14.60;35.20;;;12.23;37.67;102000.91;12237269;19;20014;-78
2022/04/30 01:19:24;;;;;;;4.32;1.35;;;14.50;35.20;;;11.91;37.82;101976.94;12236149;19;20078;-78
2022/04/30 01:23:27;;;;;;;1.80;1.48;;;14.40;35.10;;;11.68;37.70;101962.97;12234211;19;20010;-78
2022/04/30 01:27:29;;;;;;;1.35;1.08;;;14.30;35.30;;;11.82;37.95;101996.44;12235691;19;20039;-78
2022/04/30 01:40:12;;;;;;;2.50;1.30;;;14.20;35.50;;;11.85;38.19;101991.06;12236674;19;20018;-78
2022/04/30 01:44:14;;;;;;;1.80;1.30;;;14.10;35.60;;;11.86;38.11;102003.28;12232851;19;20527;-78
2022/04/30 01:48:17;;;;;;;1.02;1.02;;;14.10;35.40;;;11.76;38.04;101982.75;12234094;19;20023;-78
2022/04/30 01:52:18;;;;;;;1.67;1.40;;;14.10;35.50;;;11.84;38.03;101996.38;12235662;19;20027;-78
2022/04/30 01:56:20;;;;;;;4.55;1.33;;;13.80;35.50;;;11.88;38.17;101996.22;12236008;19;20057;-78
2022/04/30 02:00:34;;;;;;;1.50;1.30;;;14.00;35.60;;;11.80;38.18;101985.19;12226964;19;20010;-78
2022/04/30 02:04:35;;;;;;;1.60;1.30;;;14.30;35.60;;;11.81;38.17;101983.41;12244577;19;20010;-78
2022/04/30 02:08:38;;;;;;;2.05;1.30;;;14.00;35.60;;;11.78;38.01;101987.00;12242546;19;20094;-78
2022/04/30 02:12:41;;;;;;;2.30;1.58;;;13.90;35.60;;;11.68;38.32;101989.13;12246711;19;20037;-78
2022/04/30 02:16:45;;;;;;;3.03;1.52;;;13.80;35.60;;;11.49;38.56;102004.69;12245350;19;20496;-78
2022/04/30 02:20:50;;;;;;;1.42;1.30;;;13.80;35.60;;;11.13;38.48;101954.66;12248733;19;20014;-78
2022/04/30 02:24:51;;;;;;;1.60;1.20;;;13.70;35.60;;;11.04;38.45;101955.84;12243219;19;20014;-78
2022/04/30 02:28:57;;;;;;;1.50;1.33;;;13.60;35.50;;;11.20;38.56;101987.47;12245807;19;20358;-78
2022/04/30 02:33:10;;;;;;;2.60;1.35;;;13.60;35.70;;;11.08;38.84;101951.34;12245535;19;20453;-78
2022/04/30 02:37:14;;;;;;;1.95;1.25;;;13.30;35.80;;;11.21;38.62;101973.53;12243967;19;20016;-78
2022/04/30 02:41:16;;;;;;;2.17;1.08;;;13.50;36.00;;;11.21;38.68;101962.22;12247073;19;20007;-78
2022/04/30 02:45:20;;;;;;;1.52;1.42;;;13.50;36.10;;;11.31;38.78;101974.00;12244968;19;20513;-78
2022/04/30 02:49:22;;;;;;;1.63;1.20;;;13.40;36.30;;;11.15;38.72;101938.88;12243218;19;20026;-78
2022/04/30 02:53:23;;;;;;;1.25;1.15;;;13.50;36.40;;;11.22;38.88;101930.75;12243113;19;20057;-78
2022/04/30 02:57:25;;;;;;;2.05;1.45;;;13.50;36.50;;;11.30;38.88;101935.69;12243294;19;20024;-78
2022/04/30 03:01:26;;;;;;;1.13;1.02;;;13.50;36.50;;;11.02;39.10;101881.88;12243511;19;20524;-78
2022/04/30 03:05:50;;;;;;;2.38;1.25;;;13.50;36.50;;;11.39;39.03;101935.31;12243116;19;20022;-78
2022/04/30 03:09:52;;;;;;;1.80;1.25;;;13.60;36.40;;;11.44;39.02;101943.00;12238672;19;20049;-78
2022/04/30 03:13:53;;;;;;;1.20;1.17;;;13.60;36.50;;;11.39;39.20;101930.09;12241189;19;20018;-78
2022/04/30 03:22:15;;;;;;;1.63;1.52;;;13.70;36.60;;;11.39;39.39;101937.09;12241540;19;20022;-78
2022/04/30 03:26:19;;;;;;;2.28;1.90;;;13.50;36.60;;;11.36;39.30;101935.44;12240377;19;20039;-78
2022/04/30 03:30:22;;;;;;;1.83;1.63;;;13.40;36.60;;;11.30;39.39;101928.69;12236358;19;20017;-78
2022/04/30 03:34:24;;;;;;;6.35;1.50;;;13.50;36.60;;;11.03;39.50;101893.16;12238167;19;20425;-78
2022/04/30 03:38:26;;;;;;;2.55;1.60;;;13.50;36.70;;;11.11;39.43;101906.78;12241730;19;20073;-78
2022/04/30 03:42:28;;;;;;;1.45;1.35;;;13.30;36.60;;;11.14;39.60;101927.59;12239587;19;20018;-78
2022/04/30 03:46:29;;;;;;;1.50;1.40;;;13.30;36.70;;;11.10;39.50;101925.13;12241991;19;20361;-78
2022/04/30 03:50:31;;;;;;;1.83;1.40;;;13.20;36.70;;;11.20;39.46;101942.19;12239341;19;20487;-78
2022/04/30 03:54:32;;;;;;;2.85;1.48;;;13.40;36.90;;;10.65;39.68;101858.88;12236809;19;20089;-78
2022/04/30 03:58:34;;;;;;;1.75;1.40;;;13.10;36.80;;;10.99;39.75;101913.34;12237754;19;20014;-78
2022/04/30 04:02:40;;;;;;;1.58;1.27;;;13.30;36.90;;;11.19;39.94;101950.94;12238470;19;20742;-78
2022/04/30 04:06:42;;;;;;;;;;;13.30;37.00;;;10.97;39.32;101909.94;12239981;19;20022;-78
2022/04/30 04:10:44;;;;;;;3.45;1.65;;;13.30;36.50;;;11.01;39.55;101926.34;12237308;19;20448;-78
2022/04/30 04:19:06;;;;;;;3.63;1.20;;;13.20;36.70;;;10.97;39.58;101933.47;12239724;19;20023;-78
2022/04/30 04:23:07;;;;;;;2.15;1.30;;;13.50;36.90;;;10.97;39.79;101937.84;12238614;19;20021;-78
2022/04/30 04:27:09;;;;;;;2.75;1.35;;;13.40;36.80;;;10.87;39.84;101934.72;12235967;19;20019;-78
2022/04/30 04:31:11;;;;;;;1.55;1.38;;;13.20;36.80;;;10.65;40.04;101900.69;12238925;19;20053;-78
2022/04/30 04:35:14;;;;;;;1.80;1.65;;;13.20;36.90;;;10.68;39.90;101910.16;12242318;19;20006;-78
2022/04/30 04:39:16;;;;;;;2.10;1.25;;;13.00;36.90;;;10.84;40.06;101942.66;12241360;19;20021;-78
2022/04/30 04:43:18;;;;;;;1.83;1.40;;;13.00;37.00;;;10.82;40.08;101944.47;12237707;19;20019;-78
2022/04/30 04:47:19;;;;;;;2.70;1.20;;;13.00;37.00;;;10.70;40.15;101924.88;12239667;19;20022;-78
2022/04/30 04:51:21;;;;;;;1.73;1.60;;;13.00;37.10;;;10.54;40.20;101908.06;12235507;19;20014;-78
2022/04/30 04:55:23;;;;;;;2.20;1.20;;;12.80;37.00;;;10.83;40.22;101948.81;12237528;19;20006;-78
2022/04/30 04:59:24;;;;;;;1.30;1.20;;;12.90;37.20;;;10.66;40.44;101918.03;12236187;19;20053;-78
2022/04/30 05:03:26;;;;;;;1.55;1.35;;;13.20;37.40;;;10.84;40.43;101953.13;12235435;19;20022;-78
2022/04/30 05:07:27;;;;;;;2.03;1.27;;;13.00;37.30;;;10.71;40.37;101921.34;12239173;19;20074;-79
2022/04/30 05:11:29;;;;;;;3.45;1.60;;;13.00;37.30;;;10.57;40.45;101893.13;12237847;19;20424;-79
2022/04/30 05:15:31;;;;;;;3.83;1.63;;;13.10;37.50;;;10.71;40.84;101921.34;12239947;19;20017;-78
2022/04/30 05:19:33;;;;;;;2.15;1.60;;;12.90;37.60;;;10.71;40.72;101936.19;12238235;19;20021;-78
2022/04/30 05:23:36;;;;;;;2.15;1.95;;;13.10;37.80;;;10.75;40.83;101956.06;12238206;19;19999;-78
2022/04/30 05:27:38;;;;;;;2.60;1.35;;;13.00;37.80;;;10.77;40.95;101968.16;12236145;19;20007;-78
2022/04/30 05:31:40;;;;;;;1.88;1.55;;;13.10;37.80;;;10.72;40.89;101948.31;12233963;19;20082;-78
2022/04/30 05:35:42;;;;;;;2.13;1.55;;;13.10;38.00;;;10.95;41.36;101977.09;12235432;19;20428;-78
2022/04/30 05:39:43;;;;;;;2.00;1.52;;;13.10;38.10;;;10.96;41.15;101963.09;12250169;19;20035;-79
2022/04/30 05:43:45;;;;;;;1.98;1.50;;;13.30;38.40;;;11.03;41.39;101963.75;12245197;19;20022;-78
2022/04/30 05:47:47;;;;;;;1.65;1.33;;;13.20;38.50;;;10.94;41.22;101938.81;12247590;19;20003;-78
2022/04/30 05:51:49;;;;;;;3.38;1.30;;;13.30;38.50;;;11.17;41.41;101958.84;12246196;19;20014;-78
2022/04/30 05:55:51;;;;;;;1.70;1.10;;;13.30;38.40;;;11.26;41.20;101960.25;12248747;19;20356;-78
2022/04/30 05:59:53;;;;;;;3.33;1.52;;;13.40;38.30;;;11.29;41.17;101947.06;12249428;19;20005;-79
2022/04/30 06:03:55;;;;;;;3.28;1.55;;;13.50;38.30;;;11.48;41.16;101960.28;12243584;19;20014;-78
2022/04/30 06:07:57;;;;;;;1.15;1.10;;;13.50;38.20;;;11.54;41.32;101954.81;12247780;19;20014;-78
2022/04/30 06:11:58;;;;;;;1.27;1.10;;;13.60;38.10;;;11.39;41.17;101911.78;12245356;19;20011;-94
2022/04/30 06:16:00;;;;;;;1.92;1.25;;;13.80;38.00;;;11.84;41.16;101972.81;12246088;19;20081;-90
2022/04/30 06:20:02;;;;;;;3.83;1.15;;;14.00;38.00;;;11.88;41.10;101958.72;12247146;19;20038;-92
2022/04/30 06:24:05;;;;;;;1.20;1.10;;;13.90;37.80;;;11.94;41.08;101951.47;12243565;19;20015;-85
2022/04/30 06:28:08;;;;;;;2.35;1.35;;;14.10;37.80;;;11.83;40.98;101921.41;12246424;19;20014;-89
2022/04/30 06:32:11;;;;;;;1.63;1.52;;;14.20;37.80;;;12.16;41.01;101961.91;12245857;19;20014;-87
2022/04/30 06:36:13;;;;;;;1.42;1.33;;;14.20;37.60;;;12.23;41.10;101953.78;12245552;19;20517;-86
2022/04/30 06:40:14;;;;;;;3.17;1.70;;;14.40;37.70;;;12.50;41.06;101983.19;12247368;19;20022;-84
2022/04/30 06:44:16;;;;;;;1.98;1.15;;;14.50;37.70;;;12.55;40.97;101975.97;12241901;19;20365;-85
2022/04/30 06:48:18;;;;;;;2.38;1.50;;;14.60;37.40;;;12.71;40.77;101986.66;12242685;19;20023;-86
2022/04/30 06:52:19;;;;;;;1.60;1.40;;;15.00;37.60;;;12.63;40.85;101952.91;12246233;19;20042;-85
2022/04/30 07:04:59;;;;;;;2.58;1.50;;;15.00;37.40;;;12.92;40.84;101963.88;12240449;19;20035;-85
2022/04/30 07:09:04;;;;;;;3.22;1.63;;;15.00;37.30;;;13.04;40.73;101963.31;12223013;19;20016;-86
2022/04/30 07:13:05;;;;;;;3.97;1.88;;;15.20;37.30;;;13.07;40.79;101957.94;12241913;19;20010;-85
2022/04/30 07:17:10;;;;;;;2.72;1.77;;;15.50;37.30;;;13.26;40.86;101971.09;12243696;19;20472;-86
2022/04/30 07:21:12;;;;;;;3.50;1.85;;;15.40;37.40;;;13.30;40.78;101970.00;12240096;19;20006;-86
2022/04/30 07:25:14;;;;;;;2.30;1.88;;;15.40;37.10;;;13.03;40.84;101910.00;12241506;19;20370;-85
2022/04/30 07:29:16;;;;;;;2.17;1.55;;;15.30;37.00;;;13.61;40.54;101979.06;12240666;19;20022;-84
2022/04/30 07:33:17;;;;;;;3.45;2.22;;;15.60;37.10;;;13.72;40.55;101989.91;12239906;19;20018;-84
2022/04/30 07:37:19;;;;;;;3.13;1.92;;;15.70;37.00;;;13.65;40.60;101959.63;12241732;19;20523;-85
2022/04/30 07:41:20;;;;;;;2.45;1.60;;;15.80;37.00;;;13.81;40.55;101971.06;12241030;19;20021;-84
2022/04/30 07:45:22;;;;;;;2.40;1.63;;;15.80;37.20;;;13.55;40.58;101905.88;12243130;19;20022;-87
2022/04/30 07:49:24;;;;;;;1.98;1.65;;;16.00;37.20;;;13.94;40.50;101955.56;12243445;19;20016;-86
2022/04/30 07:53:26;;;;;;;3.08;2.10;;;16.10;37.00;;;14.15;40.49;101972.91;12244477;19;20049;-88
2022/04/30 07:57:28;;;;;;;2.05;1.38;;;16.20;37.20;;;14.27;40.46;101967.94;12241702;19;20364;-88
2022/04/30 08:01:29;;;;;;;3.35;2.05;;;16.30;37.10;;;14.34;40.47;101967.56;12239213;19;20390;-86
2022/04/30 08:05:31;;;;;;;3.72;1.77;;;16.40;37.10;;;14.13;40.40;101913.47;12242467;19;20033;-88
2022/04/30 08:09:32;;;;;;;2.30;1.60;;;16.40;37.00;;;14.69;40.33;101985.94;12240844;19;20022;-87
2022/04/30 08:13:35;;;;;;;2.03;1.63;;;16.50;36.90;;;14.50;40.43;101946.59;12239423;19;20007;-87
2022/04/30 08:17:40;;;;;;;2.40;1.52;;;17.10;37.10;;;14.79;40.48;101966.09;12240403;19;20025;-87
2022/04/30 08:21:42;;;;;;;2.08;1.60;;;16.80;37.00;;;15.04;40.16;101986.72;12239599;19;20010;-88
2022/04/30 08:25:45;;;;;;;2.75;1.52;;;16.90;36.70;;;15.15;40.14;101987.88;12239679;19;20038;-87
2022/04/30 08:29:46;;;;;;;2.10;1.67;;;17.10;36.70;;;15.32;40.15;101998.38;12242023;19;20011;-87
2022/04/30 08:33:48;;;;;;;3.35;1.90;;;17.20;36.50;;;15.22;40.13;101961.16;12238318;19;20409;-80
2022/04/30 08:37:50;;;;;;;2.75;1.95;;;17.30;36.60;;;15.59;40.19;101995.16;12241682;19;20306;-85
2022/04/30 08:41:52;;;;;;;2.08;1.85;;;17.30;36.60;;;15.65;40.15;101971.09;12239192;19;20014;-85
2022/04/30 08:45:53;;;;;;;4.78;2.60;;;17.60;36.90;;;15.84;40.12;101970.91;12240683;19;20014;-84
2022/04/30 08:49:57;;;;;;;5.00;2.42;;;17.80;36.70;;;16.21;40.02;101997.78;12239967;19;20022;-91
2022/04/30 08:53:58;;;;;;;1.98;1.73;;;18.00;36.60;;;16.41;39.49;101989.53;12241012;19;20011;-93
2022/04/30 08:58:01;;;;;;;3.60;1.77;;;18.10;35.90;;;16.53;39.28;101969.50;12244316;19;20459;-90
2022/04/30 09:02:10;;;;;;;3.20;1.65;;;18.30;35.70;;;16.76;39.15;101981.28;12245565;19;20028;-93
2022/04/30 09:06:18;;;;;;;2.28;1.85;;;18.40;35.80;;;16.89;38.94;101987.53;12240309;19;20341;-89
2022/04/30 09:10:38;;;;;;;2.80;1.77;;;18.60;35.50;;;16.94;38.83;101963.50;12237889;19;20010;-88
2022/04/30 09:14:41;;;;;;;3.35;1.90;;;18.70;35.50;;;17.10;39.10;101974.81;12237255;19;20026;-80
2022/04/30 09:18:43;;;;;;;4.13;1.42;;;18.90;35.60;;;17.13;39.13;101944.72;12239595;19;20014;-87
2022/04/30 09:22:45;;;;;;;2.20;1.80;;;18.90;35.50;;;17.37;38.81;101961.66;12235837;19;20003;-88
2022/04/30 09:26:46;;;;;;;4.93;1.85;;;19.20;35.30;;;17.36;38.61;101944.13;12237629;19;20018;-87
2022/04/30 09:30:48;;;;;;;6.82;1.85;;;19.30;35.20;;;17.36;38.78;101923.00;12234443;19;20015;-88
2022/04/30 09:39:17;;;;;;;2.03;1.60;;;19.60;35.10;;;17.57;38.43;101923.38;12237746;19;20029;-88
2022/04/30 09:43:18;;;;;;;3.03;2.08;;;19.70;35.00;;;17.85;38.33;101953.31;12234856;19;20696;-89
2022/04/30 09:47:20;;;;;;;4.80;2.00;;;19.80;35.00;;;17.99;38.21;101953.22;12235844;19;20015;-88
2022/04/30 09:55:49;;;;;;;2.25;1.83;;;20.00;35.20;;;18.40;38.03;101954.84;12230892;19;20370;-88
2022/04/30 09:59:56;;;;;;;3.40;2.42;;;20.00;34.80;;;18.53;37.72;101947.78;12235405;19;20022;-85
2022/04/30 10:04:03;;;;;;;5.15;2.05;;;20.30;34.30;;;18.51;37.90;101933.81;12224044;19;20018;-85
2022/04/30 10:08:06;;;;;;;1.75;1.65;;;20.40;34.70;;;18.57;37.90;101912.19;12232123;19;20074;-84
2022/04/30 10:12:31;;;;;;;5.90;2.88;;;20.60;34.50;;;18.96;37.69;101939.50;12233286;19;20046;-86
2022/04/30 10:16:34;;;;;;;2.07;1.87;;;20.70;34.50;;;19.13;37.54;101932.97;12233585;19;20476;-87
2022/04/30 10:20:35;;;;;;;3.08;2.30;;;20.80;34.40;;;19.03;37.27;101889.59;12234009;19;20021;-90
2022/04/30 10:24:45;;;;;;;5.38;2.63;;;20.90;34.00;;;19.33;37.00;101909.50;12218020;19;20007;-91
2022/04/30 10:29:11;;;;;;;4.70;2.80;;;21.10;33.60;;;19.34;36.94;101890.84;12229131;19;20028;-88
2022/04/30 10:33:13;;;;;;;4.18;2.50;;;21.30;33.50;;;19.30;36.99;101864.69;12229968;19;20049;-90
2022/04/30 10:37:44;;;;;;;4.60;2.38;;;21.40;33.60;;;19.70;36.32;101901.50;12234724;19;20101;-90
2022/04/30 10:41:50;;;;;;;3.80;2.50;;;21.50;33.00;;;19.62;36.47;101871.09;12236933;19;20022;-90
2022/04/30 10:45:52;;;;;;;4.28;2.72;;;21.50;32.80;;;19.87;36.34;101880.72;12235656;19;20014;-91
2022/04/30 10:49:53;;;;;;;2.50;2.30;;;21.90;33.00;;;20.10;36.13;101901.97;12233006;19;20086;-90
2022/04/30 10:53:55;;;;;;;3.25;2.33;;;21.90;33.00;;;20.20;36.15;101895.00;12233709;19;20077;-90
2022/04/30 10:57:56;;;;;;;3.85;2.80;;;21.90;33.10;;;20.09;35.84;101840.16;12236866;19;20393;-91
2022/04/30 11:01:59;;;;;;;7.78;3.63;;;22.10;32.70;;;20.12;35.87;101828.47;12237255;19;20014;-92
2022/04/30 11:06:01;;;;;;;2.45;2.08;;;22.40;33.00;;;20.69;35.86;101893.84;12238710;19;20014;-91
2022/04/30 11:10:06;;;;;;;3.83;2.28;;;22.30;32.60;;;20.86;35.34;101886.34;12237911;19;20022;-93
2022/04/30 11:14:11;;;;;;;3.78;2.35;;;22.50;32.70;;;21.04;35.59;101878.72;12235569;19;20018;-92
2022/04/30 11:18:13;;;;;;;2.38;2.17;;;22.70;32.80;;;21.15;35.40;101860.06;12233521;19;20054;-89
2022/04/30 11:22:17;;;;;;;3.70;2.40;;;22.80;32.70;;;21.33;35.25;101871.00;12234754;19;20023;-93
2022/04/30 11:26:18;;;;;;;57.25;5.75;;;23.00;32.30;;;21.38;34.82;101867.00;12233159;19;20015;-93
2022/04/30 11:30:20;;;;;;;2.95;2.47;;;23.10;32.10;;;21.27;34.94;101842.28;12232264;19;20039;-88
2022/04/30 11:34:22;;;;;;;2.83;1.88;;;23.00;32.00;;;21.35;34.64;101847.78;12229798;19;20014;-93
2022/04/30 11:38:23;;;;;;;2.80;2.05;;;23.10;31.90;;;21.52;34.56;101863.22;12234676;19;20018;-94
2022/04/30 11:42:25;;;;;;;4.75;2.17;;;23.30;31.90;;;21.64;34.80;101856.88;12233800;19;20014;-94
2022/04/30 11:46:27;;;;;;;5.20;2.42;;;23.40;32.00;;;21.74;34.36;101848.09;12227045;19;20026;-94
2022/04/30 11:50:29;;;;;;;3.75;2.15;;;23.70;31.90;;;21.81;34.15;101849.28;12236799;19;20491;-94
2022/04/30 11:54:35;;;;;;;2.78;1.98;;;23.70;31.80;;;21.76;34.24;101820.41;12237414;19;20797;-94
2022/04/30 11:58:41;;;;;;;3.08;2.22;;;23.60;31.40;;;21.96;33.98;101847.97;12236160;19;20019;-94
2022/04/30 12:02:46;;;;;;;2.72;2.28;;;23.60;31.00;;;;;;12236719;19;20014;-93
2022/04/30 12:06:59;;;;;;;3.33;2.22;;;23.70;31.10;;;21.77;33.74;101805.31;12230273;19;20014;-90
2022/04/30 12:11:01;;;;;;;4.10;2.10;;;24.10;31.10;;;22.04;33.70;101834.84;12230161;19;20766;-90
2022/04/30 12:15:03;;;;;;;2.38;1.92;;;24.10;31.00;;;21.99;33.61;101823.78;12230953;19;20043;-92
2022/04/30 12:28:20;;;;;;;8.88;2.03;;;23.80;30.70;;;21.88;33.53;101822.03;12231708;19;20844;-90
2022/04/30 12:32:22;;;;;;;3.17;1.85;;;23.90;31.00;;;21.76;33.33;101801.78;12229436;19;20018;-93
2022/04/30 12:36:23;;;;;;;2.30;2.10;;;23.80;30.90;;;21.52;33.31;101758.69;12235147;19;20467;-89
2022/04/30 12:40:25;;;;;;;2.92;1.98;;;23.70;30.80;;;21.80;33.21;101808.56;12230976;19;20791;-89
2022/04/30 12:44:27;;;;;;;1.92;1.70;;;23.70;30.80;;;21.78;33.14;101801.69;12234479;19;20372;-88
2022/04/30 12:48:33;;;;;;;2.40;1.90;;;23.60;30.80;;;21.93;33.24;101811.00;12236859;19;20022;-91
2022/04/30 12:52:34;;;;;;;3.63;2.13;;;23.70;30.50;;;21.94;33.27;101791.41;12241021;19;20031;-93
2022/04/30 12:56:36;;;;;;;1.92;1.70;;;23.70;30.70;;;21.91;33.05;101769.56;12243292;19;20464;-91
2022/04/30 13:00:38;;;;;;;2.03;1.63;;;23.70;30.30;;;21.92;32.60;101760.59;12242854;19;20011;-93
2022/04/30 13:04:40;;;;;;;2.15;1.60;;;23.80;30.00;;;21.55;32.73;101708.78;12239048;19;20059;-93
2022/04/30 13:17:22;;;;;;;2.40;1.40;;;23.90;30.00;;;21.86;32.30;101751.34;12243594;19;20024;-91
2022/04/30 13:21:24;;;;;;;2.17;1.67;;;23.80;30.00;;;22.03;32.24;101779.13;12239835;19;20052;-92
2022/04/30 13:25:27;;;;;;;1.55;1.45;;;23.90;30.00;;;22.14;32.29;101783.50;12238316;19;20017;-93
2022/04/30 13:29:29;;;;;;;3.65;1.73;;;23.80;29.90;;;22.21;31.91;101784.69;12246993;19;20344;-95
2022/04/30 13:33:30;;;;;;;3.85;1.58;;;24.00;29.80;;;22.18;31.72;101772.50;12240735;19;20039;-94
2022/04/30 13:37:32;;;;;;;1.73;1.60;;;24.00;29.90;;;22.19;31.75;101766.19;12243533;19;20417;-93
2022/04/30 13:41:34;;;;;;;2.10;1.90;;;24.20;29.90;;;21.76;31.59;101689.28;12242965;19;20011;-94
2022/04/30 13:45:36;;;;;;;3.92;1.60;;;23.90;29.80;;;22.08;31.82;101740.50;12239186;19;20022;-91
2022/04/30 13:49:38;;;;;;;1.77;1.67;;;24.10;29.80;;;21.99;31.86;101708.56;12238768;19;20119;-89
2022/04/30 13:53:40;;;;;;;1.48;1.27;;;24.10;29.50;;;22.22;31.81;101749.09;12235947;19;20135;-90
2022/04/30 13:57:42;;;;;;;2.10;1.80;;;24.20;29.80;;;22.25;31.29;101748.84;12241535;19;20014;-89
2022/04/30 14:01:43;;;;;;;1.50;1.40;;;24.00;29.60;;;21.91;31.22;101693.25;12248892;19;20050;-88
2022/04/30 14:05:46;;;;;;;1.77;1.67;;;24.00;29.40;;;22.28;31.58;101752.09;12248651;19;20066;-88
2022/04/30 14:09:48;;;;;;;1.67;1.40;;;23.90;29.60;;;22.14;31.30;101733.78;12246811;19;20014;-87
2022/04/30 14:18:16;;;;;;;3.25;1.60;;;24.00;29.70;;;22.12;31.40;101738.41;12241131;19;20018;-87
2022/04/30 14:22:20;;;;;;;2.03;1.40;;;23.90;29.40;;;22.18;31.30;101745.88;12231254;19;20018;-88
2022/04/30 14:26:22;;;;;;;1.60;1.50;;;24.00;29.50;;;22.13;31.04;101739.25;12233118;19;20479;-87
2022/04/30 14:30:24;;;;;;;1.85;1.48;;;23.90;29.50;;;22.01;31.06;101725.22;12230746;19;20019;-88
2022/04/30 14:34:25;;;;;;;1.80;1.70;;;23.90;29.50;;;22.03;30.98;101739.22;12227467;19;20023;-91
2022/04/30 14:38:27;;;;;;;6.75;3.05;;;23.90;29.50;;;21.94;30.78;101724.06;12233246;19;20018;-91
2022/04/30 14:42:28;;;;;;;2.03;1.52;;;23.90;29.50;;;21.93;31.22;101719.72;12234039;19;20014;-90
2022/04/30 14:46:30;;;;;;;1.90;1.80;;;23.80;29.50;;;21.90;31.04;101718.19;12235887;19;20014;-91
2022/04/30 14:50:32;;;;;;;4.60;2.25;;;23.80;29.70;;;21.77;31.27;101714.91;12232361;19;20035;-89
2022/04/30 14:54:33;;;;;;;8.10;2.03;;;23.60;29.70;;;21.78;31.15;101725.41;12228404;19;20022;-82
2022/04/30 14:58:39;;;;;;;5.82;2.05;;;23.70;29.80;;;21.60;31.25;101708.38;12230661;19;20488;-81
2022/04/30 15:02:40;;;;;;;5.97;3.10;;;23.60;29.50;;;21.62;31.09;101733.84;12230865;19;20027;-82
2022/04/30 15:06:41;;;;;;;2.95;1.83;;;23.50;29.60;;;21.41;31.39;101703.81;12224101;19;20010;-81
2022/04/30 15:10:43;;;;;;;4.60;1.95;;;23.50;29.80;;;21.34;31.48;101687.53;12225222;19;20035;-82
2022/04/30 15:14:44;;;;;;;3.13;1.80;;;23.40;29.70;;;21.52;31.39;101727.66;12226296;19;20518;-82
2022/04/30 15:18:46;;;;;;;2.85;1.88;;;23.20;29.70;;;21.53;31.04;101724.03;12230346;19;20018;-83
2022/04/30 15:22:47;;;;;;;2.25;1.88;;;23.30;29.80;;;21.29;31.09;101679.09;12229243;19;20018;-82
2022/04/30 15:26:49;;;;;;;2.80;1.98;;;23.30;29.80;;;21.56;31.30;101714.94;12227775;19;20476;-81
2022/04/30 15:30:51;;;;;;;3.00;2.17;;;23.30;29.90;;;21.55;31.20;101708.78;12227091;19;20106;-80
2022/04/30 15:34:52;;;;;;;2.65;1.95;;;23.30;29.70;;;21.52;31.44;101703.75;12224420;19;20080;-81
2022/04/30 15:38:54;;;;;;;3.75;1.90;;;23.30;29.80;;;21.54;31.21;101709.75;12223751;19;20114;-81
2022/04/30 15:42:55;;;;;;;1.83;1.73;;;23.30;29.70;;;21.56;31.23;101714.94;12224054;19;20026;-81
2022/04/30 15:51:21;;;;;;;2.08;1.58;;;23.30;29.80;;;21.54;30.80;101706.25;12222126;19;20341;-81
2022/04/30 15:55:24;;;;;;;3.28;1.58;;;23.20;29.60;;;21.52;31.00;101708.19;12223893;19;20019;-81
2022/04/30 15:59:26;;;;;;;2.03;1.42;;;23.30;29.70;;;21.47;31.12;101707.75;12224060;19;20017;-81
2022/04/30 16:03:27;;;;;;;2.50;1.48;;;23.20;29.60;;;21.04;31.08;101640.50;12221651;19;20345;-82
2022/04/30 16:07:32;;;;;;;2.88;1.70;;;23.20;29.50;;;21.34;30.66;101686.69;12223435;19;20014;-82
2022/04/30 16:11:34;;;;;;;4.55;1.65;;;23.20;29.60;;;21.34;30.80;101686.69;12225236;19;20018;-79
2022/04/30 16:15:36;;;;;;;3.53;1.33;;;23.30;29.70;;;21.26;30.95;101673.22;12225004;19;20105;-82
2022/04/30 16:19:37;;;;;;;1.38;1.27;;;23.50;29.70;;;21.30;30.72;101679.94;12224496;19;20023;-81
2022/04/30 16:23:39;;;;;;;2.85;1.25;;;23.10;29.60;;;21.29;30.87;101681.75;12223871;19;20022;-81
2022/04/30 16:27:41;;;;;;;1.50;1.27;;;23.00;29.60;;;20.96;31.01;101624.38;12222263;19;20815;-80
2022/04/30 16:31:43;;;;;;;2.78;1.50;;;23.10;29.70;;;21.20;30.85;101675.41;12218972;19;20925;-80
2022/04/30 16:35:45;;;;;;;2.25;1.20;;;23.10;29.70;;;21.18;30.88;101666.72;12223200;19;20043;-79
2022/04/30 16:39:47;;;;;;;1.42;1.33;;;23.00;29.70;;;21.25;31.09;101679.47;12222285;19;20031;-81
2022/04/30 16:43:48;;;;;;;1.95;1.38;;;23.00;29.60;;;21.27;30.71;101680.19;12221861;19;20504;-81
2022/04/30 16:47:53;;;;;;;4.45;1.60;;;23.20;29.70;;;21.18;30.99;101668.56;12223293;19;20345;-81
2022/04/30 17:00:38;;;;;;;2.28;1.20;;;22.90;30.00;;;21.12;30.89;101672.56;12223860;19;20038;-81
2022/04/30 17:04:43;;;;;;;1.67;1.50;;;22.90;30.10;;;20.95;31.08;101659.84;12220312;19;20017;-80
2022/04/30 17:08:48;;;;;;;2.80;1.20;;;22.80;30.00;;;21.00;31.36;101676.25;12222190;19;20111;-80
2022/04/30 17:12:50;;;;;;;1.92;1.15;;;22.80;30.30;;;20.95;31.48;101681.09;12219886;19;20016;-81
2022/04/30 17:16:51;;;;;;;2.85;1.38;;;22.90;30.70;;;20.87;31.79;101680.91;12220938;19;20019;-80
2022/04/30 17:20:53;;;;;;;1.70;1.40;;;22.70;30.80;;;20.66;31.67;101659.66;12219412;19;20018;-81
2022/04/30 17:24:55;;;;;;;1.60;1.23;;;22.60;30.40;;;20.53;31.64;101647.41;12216693;19;20118;-80
2022/04/30 17:28:57;;;;;;;1.73;1.40;;;22.60;30.40;;;20.65;31.90;101666.75;12219103;19;20504;-83
2022/04/30 17:41:39;;;;;;;2.58;1.35;;;22.40;30.40;;;20.43;31.55;101688.06;12232860;19;20077;-81
2022/04/30 17:45:44;;;;;;;1.67;1.50;;;22.20;30.60;;;20.34;31.88;101676.38;12234351;19;20512;-81
2022/04/30 17:49:45;;;;;;;2.15;1.95;;;22.20;30.90;;;20.21;31.58;101657.97;12230923;19;20007;-81
2022/04/30 17:53:47;;;;;;;2.97;2.45;;;22.20;30.50;;;20.34;31.84;101687.84;12233863;19;20634;-81
2022/04/30 17:57:48;;;;;;;4.00;2.42;;;22.10;30.30;;;20.36;31.99;101700.13;12234494;19;20537;-80
2022/04/30 18:01:50;;;;;;;3.28;2.22;;;22.00;30.60;;;19.93;31.58;101632.84;12233652;19;20114;-80